createdAt,value
2017-07-17T00:00:20.372Z,0
2017-07-17T00:01:22.418Z,0
2017-07-17T00:02:24.478Z,0
2017-07-17T00:03:26.533Z,0
2017-07-17T00:04:28.594Z,0
2017-07-17T00:05:30.655Z,0
2017-07-17T00:06:32.701Z,0
2017-07-17T00:07:34.774Z,0
2017-07-17T00:08:36.827Z,0
2017-07-17T00:09:38.878Z,0
2017-07-17T00:10:40.937Z,0
2017-07-17T00:11:43.363Z,0
2017-07-17T00:12:45.413Z,0
2017-07-17T00:13:47.470Z,0
2017-07-17T00:14:49.519Z,0
2017-07-17T00:15:51.583Z,0
2017-07-17T00:16:53.640Z,0
2017-07-17T00:17:55.698Z,0
2017-07-17T00:18:57.752Z,0
2017-07-17T00:19:59.808Z,0
2017-07-17T00:21:01.863Z,0
2017-07-17T00:22:03.917Z,0
2017-07-17T00:23:05.967Z,0
2017-07-17T00:24:08.028Z,0
2017-07-17T00:25:10.079Z,0
2017-07-17T00:26:12.140Z,0
2017-07-17T00:27:14.191Z,0
2017-07-17T00:28:16.599Z,0
2017-07-17T00:29:18.649Z,0
2017-07-17T00:30:20.714Z,0
2017-07-17T00:31:22.767Z,0
2017-07-17T00:32:24.823Z,0
2017-07-17T00:33:26.876Z,0
2017-07-17T00:34:28.932Z,0
2017-07-17T00:35:31.333Z,0
2017-07-17T00:36:33.747Z,0
2017-07-17T00:37:35.905Z,0
2017-07-17T00:38:37.964Z,0
2017-07-17T00:39:40.024Z,0
2017-07-17T00:40:42.071Z,0
2017-07-17T00:41:44.130Z,0
2017-07-17T00:42:46.187Z,0
2017-07-17T00:43:48.244Z,0
2017-07-17T00:44:50.292Z,0
2017-07-17T00:45:52.350Z,0
2017-07-17T00:46:54.400Z,0
2017-07-17T00:47:56.457Z,0
2017-07-17T00:48:58.509Z,0
2017-07-17T00:50:00.569Z,0
2017-07-17T00:51:02.622Z,0
2017-07-17T00:52:04.670Z,0
2017-07-17T00:53:06.721Z,0
2017-07-17T00:54:08.775Z,0
2017-07-17T00:55:10.822Z,0
2017-07-17T00:56:12.880Z,0
2017-07-17T00:57:14.933Z,0
2017-07-17T00:58:16.997Z,0
2017-07-17T00:59:19.041Z,0
2017-07-17T01:00:21.095Z,0
2017-07-17T01:01:23.148Z,0
2017-07-17T01:02:25.205Z,0
2017-07-17T01:03:27.264Z,0
2017-07-17T01:04:29.320Z,0
2017-07-17T01:05:31.369Z,0
2017-07-17T01:06:33.418Z,0
2017-07-17T01:07:35.469Z,0
2017-07-17T01:08:37.529Z,0
2017-07-17T01:09:39.582Z,0
2017-07-17T01:10:41.634Z,0
2017-07-17T01:11:43.689Z,0
2017-07-17T01:12:45.749Z,0
2017-07-17T01:13:47.803Z,0
2017-07-17T01:14:49.856Z,0
2017-07-17T01:15:51.911Z,0
2017-07-17T01:16:53.966Z,0
2017-07-17T01:17:56.018Z,0
2017-07-17T01:18:58.082Z,0
2017-07-17T01:20:00.141Z,0
2017-07-17T01:21:02.183Z,0
2017-07-17T01:22:04.582Z,0
2017-07-17T01:23:06.631Z,0
2017-07-17T01:24:08.680Z,0
2017-07-17T01:25:10.740Z,0
2017-07-17T01:26:12.799Z,0
2017-07-17T01:27:14.853Z,0
2017-07-17T01:28:16.899Z,0
2017-07-17T01:29:18.951Z,0
2017-07-17T01:30:21.012Z,0
2017-07-17T01:31:23.067Z,0
2017-07-17T01:32:25.122Z,0
2017-07-17T01:33:27.181Z,0
2017-07-17T01:34:29.237Z,0
2017-07-17T01:35:31.294Z,0
2017-07-17T01:36:33.369Z,0
2017-07-17T01:37:35.545Z,0
2017-07-17T01:38:37.951Z,0
2017-07-17T01:39:39.995Z,0
2017-07-17T01:40:42.064Z,0
2017-07-17T01:41:44.107Z,0
2017-07-17T01:42:46.158Z,0
2017-07-17T01:43:48.214Z,0
2017-07-17T01:44:50.263Z,0
2017-07-17T01:45:52.320Z,0
2017-07-17T01:46:54.361Z,0
2017-07-17T01:47:56.410Z,0
2017-07-17T01:48:58.468Z,0
2017-07-17T01:50:00.518Z,0
2017-07-17T01:51:02.572Z,0
2017-07-17T01:52:04.617Z,0
2017-07-17T01:53:06.666Z,0
2017-07-17T01:54:08.732Z,0
2017-07-17T01:55:10.780Z,0
2017-07-17T01:56:12.834Z,0
2017-07-17T01:57:14.893Z,0
2017-07-17T01:58:16.947Z,0
2017-07-17T01:59:19.354Z,0
2017-07-17T02:00:21.403Z,0
2017-07-17T02:01:23.461Z,0
2017-07-17T02:02:25.521Z,0
2017-07-17T02:03:27.573Z,0
2017-07-17T02:04:29.625Z,0
2017-07-17T02:05:31.686Z,0
2017-07-17T02:06:33.735Z,0
2017-07-17T02:07:35.788Z,0
2017-07-17T02:08:37.843Z,0
2017-07-17T02:09:39.903Z,0
2017-07-17T02:10:41.952Z,0
2017-07-17T02:11:44.005Z,0
2017-07-17T02:12:46.065Z,0
2017-07-17T02:13:48.108Z,0
2017-07-17T02:14:50.163Z,0
2017-07-17T02:15:52.217Z,0
2017-07-17T02:16:54.269Z,0
2017-07-17T02:17:56.326Z,0
2017-07-17T02:18:58.369Z,0
2017-07-17T02:20:00.432Z,4
2017-07-17T02:21:02.828Z,4
2017-07-17T02:22:04.878Z,4
2017-07-17T02:23:06.935Z,0
2017-07-17T02:24:08.990Z,0
2017-07-17T02:25:11.041Z,4
2017-07-17T02:26:13.093Z,4
2017-07-17T02:27:15.150Z,4
2017-07-17T02:28:17.200Z,4
2017-07-17T02:29:19.252Z,8
2017-07-17T02:30:21.299Z,4
2017-07-17T02:31:23.350Z,8
2017-07-17T02:32:25.403Z,8
2017-07-17T02:33:27.455Z,8
2017-07-17T02:34:29.514Z,12
2017-07-17T02:35:31.576Z,12
2017-07-17T02:36:33.663Z,16
2017-07-17T02:37:35.804Z,16
2017-07-17T02:38:37.854Z,20
2017-07-17T02:39:39.909Z,20
2017-07-17T02:40:41.961Z,24
2017-07-17T02:41:44.017Z,28
2017-07-17T02:42:46.061Z,28
2017-07-17T02:43:48.116Z,36
2017-07-17T02:44:50.171Z,40
2017-07-17T02:45:52.225Z,44
2017-07-17T02:46:54.275Z,48
2017-07-17T02:47:56.332Z,56
2017-07-17T02:48:58.384Z,64
2017-07-17T02:50:00.434Z,72
2017-07-17T02:51:02.481Z,76
2017-07-17T02:52:04.535Z,88
2017-07-17T02:53:06.589Z,96
2017-07-17T02:54:08.652Z,108
2017-07-17T02:55:10.707Z,120
2017-07-17T02:56:12.756Z,132
2017-07-17T02:57:14.803Z,144
2017-07-17T02:58:16.866Z,156
2017-07-17T02:59:18.920Z,172
2017-07-17T03:00:20.984Z,188
2017-07-17T03:01:23.033Z,204
2017-07-17T03:02:25.084Z,224
2017-07-17T03:03:27.136Z,244
2017-07-17T03:04:29.190Z,264
2017-07-17T03:05:31.240Z,284
2017-07-17T03:06:33.300Z,308
2017-07-17T03:07:35.351Z,336
2017-07-17T03:08:37.413Z,364
2017-07-17T03:09:39.468Z,388
2017-07-17T03:10:41.521Z,412
2017-07-17T03:11:43.581Z,444
2017-07-17T03:12:45.631Z,476
2017-07-17T03:13:47.691Z,504
2017-07-17T03:14:49.744Z,532
2017-07-17T03:15:51.806Z,560
2017-07-17T03:16:53.857Z,588
2017-07-17T03:17:55.910Z,624
2017-07-17T03:18:57.956Z,660
2017-07-17T03:20:00.006Z,696
2017-07-17T03:21:02.064Z,732
2017-07-17T03:22:04.114Z,768
2017-07-17T03:23:06.163Z,804
2017-07-17T03:24:08.231Z,836
2017-07-17T03:25:10.278Z,876
2017-07-17T03:26:12.334Z,916
2017-07-17T03:27:14.392Z,948
2017-07-17T03:28:16.445Z,984
2017-07-17T03:29:18.502Z,1020
2017-07-17T03:30:20.562Z,1056
2017-07-17T03:31:22.613Z,1096
2017-07-17T03:32:24.671Z,1132
2017-07-17T03:33:26.716Z,1168
2017-07-17T03:34:28.776Z,1208
2017-07-17T03:35:30.836Z,1244
2017-07-17T03:36:32.912Z,1280
2017-07-17T03:37:35.023Z,1320
2017-07-17T03:38:37.081Z,1356
2017-07-17T03:39:39.132Z,1404
2017-07-17T03:40:41.185Z,1444
2017-07-17T03:41:43.242Z,1488
2017-07-17T03:42:45.307Z,1532
2017-07-17T03:43:47.364Z,1576
2017-07-17T03:44:49.409Z,1624
2017-07-17T03:45:51.821Z,1664
2017-07-17T03:46:53.876Z,1712
2017-07-17T03:47:55.929Z,1760
2017-07-17T03:48:57.988Z,1804
2017-07-17T03:50:00.033Z,1856
2017-07-17T03:51:02.433Z,1912
2017-07-17T03:52:04.494Z,1972
2017-07-17T03:53:06.551Z,2028
2017-07-17T03:54:08.608Z,2092
2017-07-17T03:55:10.661Z,2156
2017-07-17T03:56:12.717Z,2212
2017-07-17T03:57:14.767Z,2276
2017-07-17T03:58:16.816Z,2336
2017-07-17T03:59:18.880Z,2392
2017-07-17T04:00:20.935Z,2440
2017-07-17T04:01:22.988Z,2500
2017-07-17T04:02:25.044Z,2552
2017-07-17T04:03:27.091Z,2596
2017-07-17T04:04:29.152Z,2640
2017-07-17T04:05:31.212Z,2700
2017-07-17T04:06:33.298Z,2772
2017-07-17T04:07:35.334Z,2848
2017-07-17T04:08:37.378Z,2920
2017-07-17T04:09:39.433Z,2992
2017-07-17T04:10:41.492Z,3064
2017-07-17T04:11:43.545Z,3112
2017-07-17T04:12:45.607Z,3160
2017-07-17T04:13:47.668Z,3200
2017-07-17T04:14:49.720Z,3216
2017-07-17T04:15:51.777Z,3220
2017-07-17T04:16:53.824Z,3212
2017-07-17T04:17:55.887Z,3204
2017-07-17T04:18:57.941Z,3220
2017-07-17T04:19:59.995Z,3220
2017-07-17T04:21:02.051Z,3212
2017-07-17T04:22:04.100Z,3192
2017-07-17T04:23:06.165Z,3156
2017-07-17T04:24:08.214Z,3116
2017-07-17T04:25:10.266Z,3168
2017-07-17T04:26:12.324Z,3176
2017-07-17T04:27:14.381Z,3140
2017-07-17T04:28:16.438Z,3136
2017-07-17T04:29:18.494Z,3116
2017-07-17T04:30:20.552Z,3080
2017-07-17T04:31:22.616Z,2976
2017-07-17T04:32:24.663Z,3032
2017-07-17T04:33:26.722Z,3052
2017-07-17T04:34:28.777Z,3108
2017-07-17T04:35:30.834Z,3052
2017-07-17T04:36:32.898Z,3156
2017-07-17T04:37:34.973Z,3140
2017-07-17T04:38:37.023Z,3156
2017-07-17T04:39:39.083Z,3272
2017-07-17T04:40:41.127Z,3348
2017-07-17T04:41:43.192Z,3368
2017-07-17T04:42:45.246Z,3412
2017-07-17T04:43:47.295Z,3452
2017-07-17T04:44:49.356Z,3552
2017-07-17T04:45:51.417Z,3636
2017-07-17T04:46:53.467Z,3708
2017-07-17T04:47:55.533Z,3780
2017-07-17T04:48:57.586Z,3824
2017-07-17T04:49:59.655Z,3820
2017-07-17T04:51:02.046Z,3800
2017-07-17T04:52:04.452Z,3788
2017-07-17T04:53:06.505Z,3768
2017-07-17T04:54:08.562Z,3700
2017-07-17T04:55:10.622Z,3648
2017-07-17T04:56:12.688Z,3644
2017-07-17T04:57:14.735Z,3656
2017-07-17T04:58:16.805Z,3716
2017-07-17T04:59:18.857Z,3592
2017-07-17T05:00:20.907Z,3652
2017-07-17T05:01:22.962Z,3740
2017-07-17T05:02:25.018Z,3784
2017-07-17T05:03:27.081Z,3816
2017-07-17T05:04:29.142Z,3880
2017-07-17T05:05:31.197Z,3920
2017-07-17T05:06:33.249Z,3892
2017-07-17T05:07:35.304Z,3972
2017-07-17T05:08:37.361Z,4028
2017-07-17T05:09:39.762Z,4064
2017-07-17T05:10:41.825Z,4088
2017-07-17T05:11:43.887Z,4112
2017-07-17T05:12:45.934Z,4128
2017-07-17T05:13:47.991Z,4144
2017-07-17T05:14:50.048Z,4120
2017-07-17T05:15:52.110Z,4136
2017-07-17T05:16:54.172Z,4136
2017-07-17T05:17:56.231Z,4132
2017-07-17T05:18:58.290Z,4212
2017-07-17T05:20:00.547Z,4280
2017-07-17T05:21:04.782Z,4308
2017-07-17T05:22:07.201Z,4324
2017-07-17T05:23:09.255Z,4268
2017-07-17T05:24:11.308Z,4220
2017-07-17T05:25:13.400Z,4076
2017-07-17T05:26:15.476Z,4164
2017-07-17T05:27:17.531Z,4264
2017-07-17T05:28:19.589Z,4252
2017-07-17T05:29:21.680Z,4264
2017-07-17T05:30:23.739Z,4328
2017-07-17T05:31:25.789Z,4416
2017-07-17T05:32:27.852Z,4444
2017-07-17T05:33:29.909Z,4460
2017-07-17T05:34:31.971Z,4544
2017-07-17T05:35:34.029Z,4540
2017-07-17T05:36:36.110Z,4596
2017-07-17T05:37:38.220Z,4668
2017-07-17T05:38:40.286Z,4712
2017-07-17T05:39:42.347Z,4732
2017-07-17T05:40:44.400Z,4748
2017-07-17T05:41:46.456Z,4756
2017-07-17T05:42:48.515Z,4792
2017-07-17T05:43:50.576Z,4780
2017-07-17T05:44:52.641Z,4736
2017-07-17T05:45:54.698Z,4780
2017-07-17T05:46:56.764Z,4720
2017-07-17T05:47:58.808Z,4668
2017-07-17T05:49:00.867Z,4764
2017-07-17T05:50:02.933Z,4804
2017-07-17T05:51:04.986Z,4980
2017-07-17T05:52:07.046Z,5088
2017-07-17T05:53:09.461Z,5132
2017-07-17T05:54:11.514Z,5132
2017-07-17T05:55:13.583Z,5096
2017-07-17T05:56:15.641Z,5016
2017-07-17T05:57:17.698Z,5148
2017-07-17T05:58:19.758Z,5196
2017-07-17T05:59:21.816Z,5212
2017-07-17T06:00:23.867Z,5228
2017-07-17T06:01:25.923Z,5252
2017-07-17T06:02:27.983Z,5268
2017-07-17T06:03:30.050Z,5280
2017-07-17T06:04:32.104Z,5260
2017-07-17T06:05:34.165Z,5240
2017-07-17T06:06:36.218Z,5224
2017-07-17T06:07:38.273Z,5216
2017-07-17T06:08:40.697Z,5224
2017-07-17T06:09:42.766Z,5256
2017-07-17T06:10:44.827Z,5280
2017-07-17T06:11:46.888Z,5308
2017-07-17T06:12:48.947Z,5324
2017-07-17T06:13:51.008Z,5356
2017-07-17T06:14:53.063Z,5372
2017-07-17T06:15:55.122Z,5420
2017-07-17T06:16:57.180Z,5472
2017-07-17T06:17:59.232Z,5544
2017-07-17T06:19:01.298Z,5608
2017-07-17T06:20:03.357Z,5672
2017-07-17T06:21:05.416Z,5932
2017-07-17T06:22:07.484Z,6256
2017-07-17T06:23:09.538Z,6552
2017-07-17T06:24:11.594Z,7028
2017-07-17T06:25:13.655Z,9040
2017-07-17T06:26:15.715Z,11484
2017-07-17T06:27:17.777Z,8756
2017-07-17T06:28:19.824Z,7424
2017-07-17T06:29:21.885Z,7900
2017-07-17T06:30:23.950Z,7412
2017-07-17T06:31:26.005Z,7140
2017-07-17T06:32:28.066Z,7420
2017-07-17T06:33:30.131Z,8044
2017-07-17T06:34:32.197Z,9080
2017-07-17T06:35:34.243Z,11068
2017-07-17T06:36:36.329Z,12020
2017-07-17T06:37:38.432Z,10560
2017-07-17T06:38:40.485Z,9544
2017-07-17T06:39:42.548Z,10596
2017-07-17T06:40:44.611Z,12708
2017-07-17T06:41:46.672Z,11288
2017-07-17T06:42:48.736Z,11452
2017-07-17T06:43:50.791Z,11180
2017-07-17T06:44:53.203Z,10400
2017-07-17T06:45:55.262Z,10468
2017-07-17T06:46:57.322Z,12992
2017-07-17T06:47:59.385Z,16460
2017-07-17T06:49:01.802Z,13152
2017-07-17T06:50:03.863Z,10552
2017-07-17T06:51:05.912Z,9500
2017-07-17T06:52:07.971Z,9540
2017-07-17T06:53:10.030Z,9880
2017-07-17T06:54:12.087Z,10340
2017-07-17T06:55:14.145Z,11144
2017-07-17T06:56:16.205Z,11560
2017-07-17T06:57:18.265Z,11844
2017-07-17T06:58:20.331Z,13844
2017-07-17T06:59:22.401Z,16296
2017-07-17T07:00:24.463Z,18404
2017-07-17T07:01:26.561Z,17892
2017-07-17T07:02:28.581Z,14804
2017-07-17T07:03:30.644Z,13892
2017-07-17T07:04:32.710Z,15044
2017-07-17T07:05:34.778Z,15984
2017-07-17T07:06:36.833Z,17172
2017-07-17T07:07:38.896Z,18316
2017-07-17T07:08:40.951Z,18036
2017-07-17T07:09:43.010Z,18192
2017-07-17T07:10:45.086Z,16940
2017-07-17T07:11:47.150Z,15600
2017-07-17T07:12:49.208Z,14144
2017-07-17T07:13:51.271Z,13528
2017-07-17T07:14:53.333Z,13244
2017-07-17T07:15:55.382Z,13460
2017-07-17T07:16:57.446Z,13144
2017-07-17T07:17:59.515Z,11996
2017-07-17T07:19:01.570Z,11084
2017-07-17T07:20:03.634Z,10112
2017-07-17T07:21:05.698Z,11676
2017-07-17T07:22:07.758Z,13544
2017-07-17T07:23:09.828Z,15580
2017-07-17T07:24:11.885Z,17484
2017-07-17T07:25:13.960Z,20160
2017-07-17T07:26:16.016Z,19424
2017-07-17T07:27:18.073Z,18216
2017-07-17T07:28:20.133Z,17092
2017-07-17T07:29:22.202Z,16376
2017-07-17T07:30:24.273Z,15072
2017-07-17T07:31:26.339Z,15800
2017-07-17T07:32:28.399Z,17336
2017-07-17T07:33:30.468Z,17544
2017-07-17T07:34:32.532Z,17396
2017-07-17T07:35:34.605Z,19552
2017-07-17T07:36:36.668Z,21728
2017-07-17T07:37:38.771Z,22144
2017-07-17T07:38:40.833Z,23360
2017-07-17T07:39:42.898Z,25632
2017-07-17T07:40:44.959Z,25024
2017-07-17T07:41:47.031Z,23840
2017-07-17T07:42:49.091Z,23264
2017-07-17T07:43:51.151Z,22912
2017-07-17T07:44:53.212Z,24160
2017-07-17T07:45:55.280Z,24320
2017-07-17T07:46:57.340Z,25760
2017-07-17T07:47:59.405Z,28960
2017-07-17T07:49:01.469Z,27744
2017-07-17T07:50:03.546Z,25664
2017-07-17T07:51:05.601Z,22560
2017-07-17T07:52:07.669Z,20576
2017-07-17T07:53:09.734Z,19744
2017-07-17T07:54:11.800Z,20160
2017-07-17T07:55:13.863Z,20448
2017-07-17T07:56:15.916Z,19328
2017-07-17T07:57:17.977Z,16848
2017-07-17T07:58:20.054Z,14988
2017-07-17T07:59:22.112Z,14492
2017-07-17T08:00:24.179Z,15752
2017-07-17T08:01:26.241Z,18860
2017-07-17T08:02:28.302Z,23680
2017-07-17T08:03:30.364Z,27072
2017-07-17T08:04:32.421Z,28608
2017-07-17T08:05:34.495Z,29472
2017-07-17T08:06:36.562Z,28704
2017-07-17T08:07:38.622Z,27488
2017-07-17T08:08:40.696Z,27296
2017-07-17T08:09:42.754Z,27712
2017-07-17T08:10:44.826Z,27936
2017-07-17T08:11:46.895Z,26944
2017-07-17T08:12:48.954Z,26208
2017-07-17T08:13:51.019Z,24928
2017-07-17T08:14:53.080Z,24544
2017-07-17T08:15:55.152Z,24960
2017-07-17T08:16:57.219Z,24448
2017-07-17T08:17:59.285Z,24480
2017-07-17T08:19:01.349Z,24128
2017-07-17T08:20:03.413Z,23008
2017-07-17T08:21:05.476Z,21888
2017-07-17T08:22:07.534Z,21664
2017-07-17T08:23:09.599Z,20448
2017-07-17T08:24:12.028Z,18336
2017-07-17T08:25:14.091Z,18148
2017-07-17T08:26:16.151Z,18944
2017-07-17T08:27:18.213Z,19328
2017-07-17T08:28:20.282Z,19680
2017-07-17T08:29:22.344Z,19872
2017-07-17T08:30:24.408Z,20096
2017-07-17T08:31:26.481Z,20352
2017-07-17T08:32:28.544Z,21024
2017-07-17T08:33:30.605Z,22432
2017-07-17T08:34:32.669Z,30944
2017-07-17T08:35:34.741Z,55328
2017-07-17T08:36:36.807Z,64384
2017-07-17T08:37:38.940Z,62112
2017-07-17T08:38:41.018Z,37664
2017-07-17T08:39:43.085Z,36448
2017-07-17T08:40:45.141Z,42272
2017-07-17T08:41:47.210Z,27392
2017-07-17T08:42:49.275Z,25728
2017-07-17T08:43:51.339Z,23936
2017-07-17T08:44:53.405Z,21504
2017-07-17T08:45:55.464Z,19072
2017-07-17T08:46:57.529Z,17436
2017-07-17T08:47:59.606Z,15708
2017-07-17T08:49:01.676Z,13132
2017-07-17T08:50:04.071Z,11820
2017-07-17T08:51:06.137Z,11140
2017-07-17T08:52:08.210Z,10836
2017-07-17T08:53:10.627Z,11164
2017-07-17T08:54:12.691Z,12396
2017-07-17T08:55:14.756Z,13784
2017-07-17T08:56:16.821Z,14504
2017-07-17T08:57:18.879Z,115168
2017-07-17T08:58:20.941Z,19884
2017-07-17T08:59:23.015Z,134304
2017-07-17T09:00:25.080Z,143584
2017-07-17T09:01:27.498Z,146528
2017-07-17T09:02:29.558Z,144704
2017-07-17T09:03:31.620Z,139232
2017-07-17T09:04:33.694Z,138912
2017-07-17T09:05:35.754Z,107296
2017-07-17T09:06:37.823Z,39104
2017-07-17T09:07:39.890Z,20608
2017-07-17T09:08:41.949Z,16644
2017-07-17T09:09:44.012Z,48832
2017-07-17T09:10:46.084Z,39296
2017-07-17T09:11:48.146Z,39808
2017-07-17T09:12:50.216Z,43968
2017-07-17T09:13:52.277Z,69696
2017-07-17T09:14:54.343Z,94656
2017-07-17T09:15:56.409Z,124224
2017-07-17T09:16:58.476Z,139328
2017-07-17T09:18:00.542Z,92352
2017-07-17T09:19:02.619Z,84096
2017-07-17T09:20:04.687Z,87776
2017-07-17T09:21:06.754Z,84160
2017-07-17T09:22:08.821Z,80096
2017-07-17T09:23:10.889Z,26880
2017-07-17T09:24:12.962Z,127232
2017-07-17T09:25:15.024Z,34784
2017-07-17T09:26:17.100Z,133632
2017-07-17T09:27:19.545Z,32832
2017-07-17T09:28:21.607Z,124000
2017-07-17T09:29:23.684Z,124288
2017-07-17T09:30:25.737Z,136160
2017-07-17T09:31:28.159Z,120384
2017-07-17T09:32:30.226Z,141696
2017-07-17T09:33:32.289Z,37376
2017-07-17T09:34:34.358Z,128192
2017-07-17T09:35:36.421Z,121376
2017-07-17T09:36:38.495Z,124064
2017-07-17T09:37:40.585Z,125664
2017-07-17T09:38:42.652Z,128576
2017-07-17T09:39:44.730Z,132800
2017-07-17T09:40:46.797Z,141632
2017-07-17T09:41:48.867Z,141888
2017-07-17T09:42:50.936Z,76672
2017-07-17T09:43:53.010Z,67712
2017-07-17T09:44:55.076Z,55456
2017-07-17T09:45:57.145Z,16328
2017-07-17T09:46:59.211Z,15620
2017-07-17T09:48:01.280Z,16320
2017-07-17T09:49:03.342Z,15972
2017-07-17T09:50:05.417Z,16128
2017-07-17T09:51:07.485Z,19264
2017-07-17T09:52:09.558Z,19680
2017-07-17T09:53:11.614Z,28032
2017-07-17T09:54:13.712Z,134080
2017-07-17T09:55:15.763Z,126560
2017-07-17T09:56:17.838Z,126112
2017-07-17T09:57:19.914Z,120832
2017-07-17T09:58:21.985Z,116480
2017-07-17T09:59:24.056Z,122080
2017-07-17T10:00:26.132Z,126688
2017-07-17T10:01:28.189Z,139584
2017-07-17T10:02:30.265Z,145664
2017-07-17T10:03:32.333Z,37568
2017-07-17T10:04:34.410Z,107264
2017-07-17T10:05:36.474Z,17680
2017-07-17T10:06:38.544Z,14524
2017-07-17T10:07:40.966Z,13172
2017-07-17T10:08:43.030Z,13208
2017-07-17T10:09:45.100Z,14240
2017-07-17T10:10:47.160Z,16740
2017-07-17T10:11:49.233Z,19712
2017-07-17T10:12:51.309Z,23776
2017-07-17T10:13:53.379Z,126784
2017-07-17T10:14:55.450Z,133248
2017-07-17T10:15:57.522Z,138048
2017-07-17T10:16:59.590Z,139424
2017-07-17T10:18:01.653Z,147712
2017-07-17T10:19:03.724Z,66656
2017-07-17T10:20:05.805Z,121472
2017-07-17T10:21:07.873Z,153472
2017-07-17T10:22:09.945Z,160928
2017-07-17T10:23:12.022Z,161504
2017-07-17T10:24:14.364Z,160512
2017-07-17T10:25:16.432Z,125952
2017-07-17T10:26:18.499Z,21536
2017-07-17T10:27:20.580Z,19200
2017-07-17T10:28:22.647Z,17592
2017-07-17T10:29:24.717Z,16856
2017-07-17T10:30:26.786Z,16748
2017-07-17T10:31:28.863Z,17032
2017-07-17T10:32:30.939Z,17804
2017-07-17T10:33:33.006Z,21760
2017-07-17T10:34:35.094Z,150912
2017-07-17T10:35:37.170Z,118080
2017-07-17T10:36:39.234Z,162304
2017-07-17T10:37:41.314Z,160768
2017-07-17T10:38:43.388Z,156640
2017-07-17T10:39:45.459Z,26336
2017-07-17T10:40:47.529Z,18660
2017-07-17T10:41:49.602Z,17896
2017-07-17T10:42:51.666Z,18808
2017-07-17T10:43:53.742Z,21024
2017-07-17T10:44:55.809Z,24128
2017-07-17T10:45:57.873Z,36160
2017-07-17T10:46:59.956Z,177248
2017-07-17T10:48:02.022Z,51680
2017-07-17T10:49:04.095Z,22656
2017-07-17T10:50:06.167Z,25792
2017-07-17T10:51:08.238Z,31104
2017-07-17T10:52:10.314Z,154944
2017-07-17T10:53:12.375Z,147552
2017-07-17T10:54:14.448Z,143648
2017-07-17T10:55:16.870Z,144544
2017-07-17T10:56:18.937Z,143264
2017-07-17T10:57:21.008Z,129696
2017-07-17T10:58:23.084Z,124352
2017-07-17T10:59:25.165Z,124224
2017-07-17T11:00:27.225Z,128800
2017-07-17T11:01:29.296Z,139104
2017-07-17T11:02:31.369Z,106496
2017-07-17T11:03:33.437Z,25472
2017-07-17T11:04:35.665Z,22208
2017-07-17T11:05:37.768Z,23552
2017-07-17T11:06:39.843Z,162112
2017-07-17T11:07:41.921Z,39744
2017-07-17T11:08:43.985Z,143328
2017-07-17T11:09:46.064Z,129984
2017-07-17T11:10:48.135Z,130464
2017-07-17T11:11:50.202Z,71776
2017-07-17T11:12:52.280Z,158080
2017-07-17T11:13:54.404Z,154880
2017-07-17T11:14:56.479Z,48096
2017-07-17T11:15:58.541Z,29792
2017-07-17T11:17:00.652Z,24480
2017-07-17T11:18:02.948Z,25280
2017-07-17T11:19:05.339Z,26432
2017-07-17T11:20:07.632Z,27584
2017-07-17T11:21:10.331Z,28064
2017-07-17T11:22:12.679Z,26528
2017-07-17T11:23:14.959Z,26176
2017-07-17T11:24:17.434Z,31040
2017-07-17T11:25:19.833Z,37760
2017-07-17T11:26:22.238Z,143712
2017-07-17T11:27:24.693Z,141376
2017-07-17T11:28:27.158Z,143552
2017-07-17T11:29:29.608Z,130912
2017-07-17T11:30:32.089Z,121600
2017-07-17T11:31:34.579Z,117792
2017-07-17T11:32:37.116Z,31136
2017-07-17T11:33:39.615Z,127712
2017-07-17T11:34:42.116Z,119168
2017-07-17T11:35:44.593Z,122816
2017-07-17T11:36:47.105Z,123968
2017-07-17T11:37:49.535Z,123744
2017-07-17T11:38:52.055Z,123552
2017-07-17T11:39:54.568Z,120512
2017-07-17T11:40:56.990Z,127936
2017-07-17T11:41:59.449Z,131072
2017-07-17T11:43:01.893Z,135776
2017-07-17T11:44:04.333Z,136416
2017-07-17T11:45:06.748Z,32672
2017-07-17T11:56:45.125Z,135168
2017-07-17T11:58:49.589Z,133280
2017-07-17T11:59:51.701Z,127776
2017-07-17T12:00:53.772Z,133472
2017-07-17T12:01:55.850Z,129696
2017-07-17T12:02:57.928Z,130048
2017-07-17T12:04:00.004Z,30176
2017-07-17T12:06:04.112Z,153472
2017-07-17T12:07:06.194Z,73632
2017-07-17T12:08:08.620Z,142624
2017-07-17T12:09:10.692Z,134976
2017-07-17T12:10:12.770Z,144544
2017-07-17T12:11:14.844Z,24000
2017-07-17T12:12:16.914Z,24704
2017-07-17T12:13:18.987Z,117888
2017-07-17T12:14:21.076Z,118336
2017-07-17T12:15:23.145Z,22560
2017-07-17T12:16:25.216Z,21152
2017-07-17T12:17:27.283Z,22336
2017-07-17T12:18:29.363Z,139840
2017-07-17T12:19:31.787Z,153024
2017-07-17T12:20:33.866Z,153792
2017-07-17T12:21:35.940Z,163872
2017-07-17T12:22:38.020Z,168128
2017-07-17T12:23:40.080Z,33792
2017-07-17T12:24:42.159Z,23968
2017-07-17T12:25:44.231Z,25216
2017-07-17T12:26:46.309Z,25664
2017-07-17T12:27:48.385Z,26368
2017-07-17T12:28:50.453Z,176896
2017-07-17T12:29:52.520Z,153216
2017-07-17T12:30:54.605Z,31328
2017-07-17T12:31:57.017Z,50496
2017-07-17T12:32:59.096Z,32864
2017-07-17T12:34:01.178Z,143392
2017-07-17T12:35:03.248Z,133536
2017-07-17T12:36:05.320Z,120032
2017-07-17T12:37:07.395Z,115584
2017-07-17T12:38:09.478Z,113120
2017-07-17T12:39:11.555Z,113792
2017-07-17T12:40:13.625Z,120960
2017-07-17T12:41:15.705Z,122688
2017-07-17T12:42:17.780Z,124064
2017-07-17T12:43:19.867Z,124704
2017-07-17T12:44:21.947Z,52352
2017-07-17T12:45:24.023Z,67936
2017-07-17T12:46:26.099Z,34560
2017-07-17T12:47:28.185Z,30528
2017-07-17T12:48:30.258Z,29824
2017-07-17T12:49:32.323Z,29504
2017-07-17T12:50:34.406Z,31040
2017-07-17T12:51:36.497Z,29952
2017-07-17T12:52:38.570Z,27840
2017-07-17T12:53:40.982Z,27328
2017-07-17T12:54:43.055Z,28128
2017-07-17T12:55:45.136Z,29504
2017-07-17T12:56:47.195Z,30304
2017-07-17T12:57:49.270Z,30112
2017-07-17T12:58:51.351Z,29568
2017-07-17T12:59:53.424Z,29632
2017-07-17T13:00:55.502Z,38496
2017-07-17T13:01:57.576Z,42016
2017-07-17T13:02:59.660Z,38304
2017-07-17T13:04:01.733Z,40608
2017-07-17T13:05:03.805Z,46560
2017-07-17T13:06:05.881Z,45568
2017-07-17T13:07:08.309Z,48000
2017-07-17T13:08:10.384Z,42784
2017-07-17T13:09:12.459Z,40768
2017-07-17T13:10:15.234Z,40224
2017-07-17T13:11:17.658Z,41088
2017-07-17T13:12:19.722Z,41120
2017-07-17T13:13:21.801Z,39744
2017-07-17T13:14:23.877Z,38080
2017-07-17T13:15:25.948Z,36576
2017-07-17T13:16:28.027Z,35584
2017-07-17T13:17:30.096Z,35264
2017-07-17T13:18:32.174Z,34656
2017-07-17T13:19:34.243Z,35072
2017-07-17T13:20:36.335Z,38048
2017-07-17T13:21:38.413Z,34240
2017-07-17T13:22:40.472Z,32288
2017-07-17T13:23:42.545Z,29696
2017-07-17T13:24:44.624Z,27744
2017-07-17T13:25:46.697Z,26688
2017-07-17T13:26:48.772Z,26112
2017-07-17T13:27:50.847Z,26016
2017-07-17T13:28:52.930Z,26592
2017-07-17T13:29:54.992Z,25312
2017-07-17T13:30:57.058Z,24032
2017-07-17T13:31:59.136Z,22656
2017-07-17T13:33:01.573Z,21312
2017-07-17T13:34:03.997Z,20064
2017-07-17T13:35:06.070Z,18816
2017-07-17T13:36:08.143Z,17804
2017-07-17T13:37:10.222Z,17068
2017-07-17T13:38:12.289Z,16384
2017-07-17T13:39:14.366Z,15956
2017-07-17T13:40:16.442Z,15940
2017-07-17T13:41:18.510Z,16236
2017-07-17T13:42:20.579Z,17000
2017-07-17T13:43:22.655Z,18848
2017-07-17T13:44:24.718Z,21856
2017-07-17T13:45:26.798Z,24928
2017-07-17T13:46:28.865Z,26176
2017-07-17T13:49:33.142Z,27424
2017-07-17T13:50:35.225Z,26688
2017-07-17T13:51:37.293Z,25600
2017-07-17T13:52:39.360Z,24320
2017-07-17T13:53:41.433Z,23264
2017-07-17T13:54:44.246Z,22624
2017-07-17T13:55:46.371Z,22336
2017-07-17T13:56:48.464Z,21664
2017-07-17T13:57:50.913Z,20544
2017-07-17T13:58:53.362Z,18784
2017-07-17T13:59:55.844Z,16996
2017-07-17T14:00:57.949Z,15728